OPRK

Shaikh Zaid Airport

Rahim Yar Khan, Pakistan
TAF OPRK 181600Z 1818/1912 23005KT 2000 FU NSC TN04/1901Z TX25/1910Z PROB30 TEMPO 1901/1905 00000KT 0500 FG NSC FM190800Z 23005KT 4000 HZ NSC
Issued Valid From Valid To
Dec-18 @ 16:00 UTC
(7 hours ago)
Dec-18 @ 18:00 UTC
(5 hours ago)
Dec-19 @ 12:00 UTC
(in 13 hours)
Dec-18 @ 18:00 to Dec-19 @ 08:00
TAF OPRK 181600Z 1818/1912 23005KT 2000 FU NSC TN04/1901Z TX25/1910Z
Wind Visibility Clouds Conditions
230° at 5 knots 1,996 meters
  • No significant clouds
  • Smoke
Temporary  (Probability 30%) Dec-19 @ 01:00 to Dec-19 @ 05:00
PROB30 TEMPO 1901/1905 00000KT 0500 FG NSC
Visibility Clouds Conditions
499 meters
  • No significant clouds
  • Fog
From Dec-19 @ 08:00 to Dec-19 @ 12:00
FM190800Z 23005KT 4000 HZ NSC
Wind Visibility Clouds Conditions
230° at 5 knots 4,007 meters
  • No significant clouds
  • Haze
TAF OPRK 181600Z 1818/1912 23005KT 2000 FU NSC TN04/1901Z TX25/1910Z PROB30 TEMPO 1901/1905 00000KT 0500 FG NSC FM190800Z 23005KT 4000 HZ NSC
Issued Dec-18 @ 16:00 UTC
(7 hours ago)
Valid From Dec-18 @ 18:00 UTC
(5 hours ago)
Valid To Dec-19 @ 12:00 UTC
(in 13 hours)
Dec-18 @ 18:00 - Dec-19 @ 08:00
Wind Visibility
230° at 5 knots 1,996 meters
Clouds
  • No significant clouds
Conditions
  • Smoke
Probability 30% Temporary Dec-19 @ 01:00 - Dec-19 @ 05:00
Clouds
  • No significant clouds
Conditions
  • Fog
From Dec-19 @ 08:00 - Dec-19 @ 12:00
Wind Visibility
230° at 5 knots 4,007 meters
Clouds
  • No significant clouds
Conditions
  • Haze